sensor_id;sensor_type;location;lat;lon;timestamp;P1;durP1;ratioP1;P2;durP2;ratioP2
3036;SDS011;1528;52.550;13.408;2022-08-19T00:01:31;14.97;;;13.87;;
3036;SDS011;1528;52.550;13.408;2022-08-19T00:04:21;15.93;;;14.83;;
3036;SDS011;1528;52.550;13.408;2022-08-19T00:07:11;16.30;;;15.10;;
3036;SDS011;1528;52.550;13.408;2022-08-19T00:09:59;16.00;;;14.90;;
3036;SDS011;1528;52.550;13.408;2022-08-19T00:12:46;19.17;;;17.77;;
3036;SDS011;1528;52.550;13.408;2022-08-19T00:15:35;19.70;;;18.30;;
3036;SDS011;1528;52.550;13.408;2022-08-19T00:18:27;18.60;;;17.30;;
3036;SDS011;1528;52.550;13.408;2022-08-19T00:21:16;17.60;;;16.40;;
3036;SDS011;1528;52.550;13.408;2022-08-19T00:24:05;17.17;;;16.00;;
3036;SDS011;1528;52.550;13.408;2022-08-19T00:26:52;18.40;;;17.07;;
3036;SDS011;1528;52.550;13.408;2022-08-19T00:29:40;17.80;;;16.60;;
3036;SDS011;1528;52.550;13.408;2022-08-19T00:32:27;19.10;;;17.83;;
3036;SDS011;1528;52.550;13.408;2022-08-19T00:35:17;19.07;;;17.87;;
3036;SDS011;1528;52.550;13.408;2022-08-19T00:38:04;20.90;;;19.30;;
3036;SDS011;1528;52.550;13.408;2022-08-19T00:40:53;20.37;;;19.07;;
3036;SDS011;1528;52.550;13.408;2022-08-19T00:43:56;19.27;;;17.97;;
3036;SDS011;1528;52.550;13.408;2022-08-19T00:46:46;19.47;;;18.07;;
3036;SDS011;1528;52.550;13.408;2022-08-19T00:49:35;20.03;;;18.57;;
3036;SDS011;1528;52.550;13.408;2022-08-19T00:52:31;17.80;;;16.60;;
3036;SDS011;1528;52.550;13.408;2022-08-19T00:55:23;17.00;;;15.90;;
3036;SDS011;1528;52.550;13.408;2022-08-19T00:58:15;17.70;;;16.43;;
3036;SDS011;1528;52.550;13.408;2022-08-19T01:01:06;16.90;;;15.60;;
3036;SDS011;1528;52.550;13.408;2022-08-19T01:03:55;16.97;;;15.87;;
3036;SDS011;1528;52.550;13.408;2022-08-19T01:06:43;16.63;;;15.20;;
3036;SDS011;1528;52.550;13.408;2022-08-19T01:09:33;16.50;;;15.40;;
3036;SDS011;1528;52.550;13.408;2022-08-19T01:12:20;15.87;;;14.67;;
3036;SDS011;1528;52.550;13.408;2022-08-19T01:15:09;15.83;;;14.73;;
3036;SDS011;1528;52.550;13.408;2022-08-19T01:17:59;16.40;;;15.30;;
3036;SDS011;1528;52.550;13.408;2022-08-19T01:20:52;17.27;;;16.07;;
3036;SDS011;1528;52.550;13.408;2022-08-19T01:23:46;16.80;;;15.60;;
3036;SDS011;1528;52.550;13.408;2022-08-19T01:26:38;17.87;;;16.67;;
3036;SDS011;1528;52.550;13.408;2022-08-19T01:29:28;16.30;;;15.07;;
3036;SDS011;1528;52.550;13.408;2022-08-19T01:32:16;15.83;;;14.80;;
3036;SDS011;1528;52.550;13.408;2022-08-19T01:35:07;15.53;;;14.50;;
3036;SDS011;1528;52.550;13.408;2022-08-19T01:37:56;17.97;;;16.60;;
3036;SDS011;1528;52.550;13.408;2022-08-19T01:40:48;16.17;;;15.13;;
3036;SDS011;1528;52.550;13.408;2022-08-19T01:43:36;17.20;;;16.03;;
3036;SDS011;1528;52.550;13.408;2022-08-19T01:46:25;18.57;;;17.27;;
3036;SDS011;1528;52.550;13.408;2022-08-19T01:49:14;17.70;;;16.60;;
3036;SDS011;1528;52.550;13.408;2022-08-19T01:52:04;18.13;;;17.00;;
3036;SDS011;1528;52.550;13.408;2022-08-19T01:54:56;17.67;;;16.47;;
3036;SDS011;1528;52.550;13.408;2022-08-19T01:57:46;18.17;;;16.97;;
3036;SDS011;1528;52.550;13.408;2022-08-19T02:00:36;20.73;;;19.27;;
3036;SDS011;1528;52.550;13.408;2022-08-19T02:03:24;21.20;;;19.50;;
3036;SDS011;1528;52.550;13.408;2022-08-19T02:06:15;21.40;;;19.70;;
3036;SDS011;1528;52.550;13.408;2022-08-19T02:09:03;20.70;;;19.17;;
3036;SDS011;1528;52.550;13.408;2022-08-19T02:11:51;21.10;;;19.60;;
3036;SDS011;1528;52.550;13.408;2022-08-19T02:14:41;21.77;;;20.27;;
3036;SDS011;1528;52.550;13.408;2022-08-19T02:17:26;21.17;;;19.60;;
3036;SDS011;1528;52.550;13.408;2022-08-19T02:20:15;22.93;;;21.23;;
3036;SDS011;1528;52.550;13.408;2022-08-19T02:23:01;24.17;;;22.47;;
3036;SDS011;1528;52.550;13.408;2022-08-19T02:25:48;27.03;;;24.83;;
3036;SDS011;1528;52.550;13.408;2022-08-19T02:28:40;25.40;;;23.40;;
3036;SDS011;1528;52.550;13.408;2022-08-19T02:31:31;22.50;;;20.90;;
3036;SDS011;1528;52.550;13.408;2022-08-19T02:34:22;21.60;;;19.80;;
3036;SDS011;1528;52.550;13.408;2022-08-19T02:37:11;22.13;;;20.63;;
3036;SDS011;1528;52.550;13.408;2022-08-19T02:40:12;21.90;;;20.20;;
3036;SDS011;1528;52.550;13.408;2022-08-19T02:42:59;21.80;;;20.23;;
3036;SDS011;1528;52.550;13.408;2022-08-19T02:45:49;20.83;;;19.33;;
3036;SDS011;1528;52.550;13.408;2022-08-19T02:48:37;21.60;;;20.00;;
3036;SDS011;1528;52.550;13.408;2022-08-19T02:51:24;21.47;;;19.77;;
3036;SDS011;1528;52.550;13.408;2022-08-19T02:54:13;20.40;;;19.00;;
3036;SDS011;1528;52.550;13.408;2022-08-19T02:56:59;24.80;;;22.90;;
3036;SDS011;1528;52.550;13.408;2022-08-19T02:59:46;19.90;;;18.40;;
3036;SDS011;1528;52.550;13.408;2022-08-19T03:02:34;21.00;;;19.53;;
3036;SDS011;1528;52.550;13.408;2022-08-19T03:05:24;22.40;;;20.60;;
3036;SDS011;1528;52.550;13.408;2022-08-19T03:08:13;19.77;;;18.47;;
3036;SDS011;1528;52.550;13.408;2022-08-19T03:11:01;19.63;;;18.33;;
3036;SDS011;1528;52.550;13.408;2022-08-19T03:13:48;18.87;;;17.57;;
3036;SDS011;1528;52.550;13.408;2022-08-19T03:16:39;20.23;;;18.73;;
3036;SDS011;1528;52.550;13.408;2022-08-19T03:19:27;20.23;;;18.80;;
3036;SDS011;1528;52.550;13.408;2022-08-19T03:22:14;18.87;;;17.57;;
3036;SDS011;1528;52.550;13.408;2022-08-19T03:25:01;20.93;;;19.43;;
3036;SDS011;1528;52.550;13.408;2022-08-19T03:27:48;20.03;;;18.63;;
3036;SDS011;1528;52.550;13.408;2022-08-19T03:30:34;21.43;;;19.80;;
3036;SDS011;1528;52.550;13.408;2022-08-19T03:33:19;19.90;;;18.43;;
3036;SDS011;1528;52.550;13.408;2022-08-19T03:36:08;19.10;;;17.60;;
3036;SDS011;1528;52.550;13.408;2022-08-19T03:39:00;19.90;;;18.53;;
3036;SDS011;1528;52.550;13.408;2022-08-19T03:41:48;20.93;;;19.13;;
3036;SDS011;1528;52.550;13.408;2022-08-19T03:44:41;20.30;;;18.80;;
3036;SDS011;1528;52.550;13.408;2022-08-19T03:47:30;19.03;;;17.67;;
3036;SDS011;1528;52.550;13.408;2022-08-19T03:50:21;19.97;;;18.50;;
3036;SDS011;1528;52.550;13.408;2022-08-19T03:53:12;19.93;;;18.40;;
3036;SDS011;1528;52.550;13.408;2022-08-19T03:56:00;18.33;;;16.93;;
3036;SDS011;1528;52.550;13.408;2022-08-19T03:58:47;20.60;;;19.03;;
3036;SDS011;1528;52.550;13.408;2022-08-19T04:01:36;18.10;;;16.83;;
3036;SDS011;1528;52.550;13.408;2022-08-19T04:04:25;17.80;;;16.37;;
3036;SDS011;1528;52.550;13.408;2022-08-19T04:07:13;19.03;;;17.73;;
3036;SDS011;1528;52.550;13.408;2022-08-19T04:10:05;17.77;;;16.33;;
3036;SDS011;1528;52.550;13.408;2022-08-19T04:12:55;18.77;;;17.37;;
3036;SDS011;1528;52.550;13.408;2022-08-19T04:15:44;18.37;;;17.07;;
3036;SDS011;1528;52.550;13.408;2022-08-19T04:18:34;18.10;;;16.80;;
3036;SDS011;1528;52.550;13.408;2022-08-19T04:21:23;18.17;;;16.77;;
3036;SDS011;1528;52.550;13.408;2022-08-19T04:24:13;18.23;;;16.93;;
3036;SDS011;1528;52.550;13.408;2022-08-19T04:27:00;17.37;;;16.17;;
3036;SDS011;1528;52.550;13.408;2022-08-19T04:29:51;19.87;;;18.47;;
3036;SDS011;1528;52.550;13.408;2022-08-19T04:32:39;18.00;;;16.90;;
3036;SDS011;1528;52.550;13.408;2022-08-19T04:35:30;17.60;;;16.40;;
3036;SDS011;1528;52.550;13.408;2022-08-19T04:38:23;17.80;;;16.63;;
3036;SDS011;1528;52.550;13.408;2022-08-19T04:41:10;18.30;;;17.00;;
3036;SDS011;1528;52.550;13.408;2022-08-19T04:44:14;17.73;;;16.53;;
3036;SDS011;1528;52.550;13.408;2022-08-19T04:47:05;18.50;;;16.90;;
3036;SDS011;1528;52.550;13.408;2022-08-19T04:49:52;17.70;;;16.40;;
3036;SDS011;1528;52.550;13.408;2022-08-19T04:52:38;18.70;;;17.20;;
3036;SDS011;1528;52.550;13.408;2022-08-19T04:55:27;18.67;;;17.17;;
3036;SDS011;1528;52.550;13.408;2022-08-19T04:58:16;18.47;;;17.13;;
3036;SDS011;1528;52.550;13.408;2022-08-19T05:01:03;17.70;;;16.50;;
3036;SDS011;1528;52.550;13.408;2022-08-19T05:03:54;17.97;;;16.67;;
3036;SDS011;1528;52.550;13.408;2022-08-19T05:06:43;18.33;;;17.03;;
3036;SDS011;1528;52.550;13.408;2022-08-19T05:09:33;17.90;;;16.60;;
3036;SDS011;1528;52.550;13.408;2022-08-19T05:12:22;17.27;;;16.07;;
3036;SDS011;1528;52.550;13.408;2022-08-19T05:15:11;17.97;;;16.77;;
3036;SDS011;1528;52.550;13.408;2022-08-19T05:17:59;18.73;;;17.43;;
3036;SDS011;1528;52.550;13.408;2022-08-19T05:21:07;18.07;;;16.67;;
3036;SDS011;1528;52.550;13.408;2022-08-19T05:24:12;19.07;;;17.67;;
3036;SDS011;1528;52.550;13.408;2022-08-19T05:27:04;16.33;;;15.23;;
3036;SDS011;1528;52.550;13.408;2022-08-19T05:29:54;17.77;;;16.57;;
3036;SDS011;1528;52.550;13.408;2022-08-19T05:32:42;16.57;;;15.17;;
3036;SDS011;1528;52.550;13.408;2022-08-19T05:35:29;18.00;;;16.70;;
3036;SDS011;1528;52.550;13.408;2022-08-19T05:38:18;16.17;;;15.13;;
3036;SDS011;1528;52.550;13.408;2022-08-19T05:41:07;17.93;;;16.63;;
3036;SDS011;1528;52.550;13.408;2022-08-19T05:43:54;18.10;;;16.90;;
3036;SDS011;1528;52.550;13.408;2022-08-19T05:46:41;18.13;;;16.63;;
3036;SDS011;1528;52.550;13.408;2022-08-19T05:49:31;18.77;;;17.43;;
3036;SDS011;1528;52.550;13.408;2022-08-19T05:52:19;17.43;;;16.13;;
3036;SDS011;1528;52.550;13.408;2022-08-19T05:55:09;17.17;;;15.93;;
3036;SDS011;1528;52.550;13.408;2022-08-19T05:57:56;16.67;;;15.47;;
3036;SDS011;1528;52.550;13.408;2022-08-19T06:00:42;18.20;;;16.80;;
3036;SDS011;1528;52.550;13.408;2022-08-19T06:03:28;18.43;;;17.13;;
3036;SDS011;1528;52.550;13.408;2022-08-19T06:06:14;18.73;;;17.43;;
3036;SDS011;1528;52.550;13.408;2022-08-19T06:09:03;17.20;;;16.00;;
3036;SDS011;1528;52.550;13.408;2022-08-19T06:11:55;18.60;;;17.30;;
3036;SDS011;1528;52.550;13.408;2022-08-19T06:14:43;18.53;;;17.27;;
3036;SDS011;1528;52.550;13.408;2022-08-19T06:17:30;19.20;;;17.90;;
3036;SDS011;1528;52.550;13.408;2022-08-19T06:20:19;18.07;;;16.87;;
3036;SDS011;1528;52.550;13.408;2022-08-19T06:23:07;18.83;;;17.13;;
3036;SDS011;1528;52.550;13.408;2022-08-19T06:25:56;18.90;;;17.60;;
3036;SDS011;1528;52.550;13.408;2022-08-19T06:28:47;19.67;;;18.10;;
3036;SDS011;1528;52.550;13.408;2022-08-19T06:31:36;19.67;;;18.27;;
3036;SDS011;1528;52.550;13.408;2022-08-19T06:34:26;19.23;;;17.83;;
3036;SDS011;1528;52.550;13.408;2022-08-19T06:37:13;19.97;;;18.40;;
3036;SDS011;1528;52.550;13.408;2022-08-19T06:40:00;19.80;;;18.10;;
3036;SDS011;1528;52.550;13.408;2022-08-19T06:42:47;20.20;;;18.47;;
3036;SDS011;1528;52.550;13.408;2022-08-19T06:45:35;19.07;;;17.70;;
3036;SDS011;1528;52.550;13.408;2022-08-19T06:48:23;20.60;;;19.00;;
3036;SDS011;1528;52.550;13.408;2022-08-19T06:51:09;19.60;;;18.20;;
3036;SDS011;1528;52.550;13.408;2022-08-19T06:53:59;20.63;;;19.27;;
3036;SDS011;1528;52.550;13.408;2022-08-19T06:56:46;20.13;;;18.67;;
3036;SDS011;1528;52.550;13.408;2022-08-19T06:59:35;20.10;;;18.60;;
3036;SDS011;1528;52.550;13.408;2022-08-19T07:02:23;20.73;;;19.23;;
3036;SDS011;1528;52.550;13.408;2022-08-19T07:05:10;22.00;;;20.40;;
3036;SDS011;1528;52.550;13.408;2022-08-19T07:07:55;19.07;;;17.67;;
3036;SDS011;1528;52.550;13.408;2022-08-19T07:10:44;19.20;;;17.80;;
3036;SDS011;1528;52.550;13.408;2022-08-19T07:13:31;18.67;;;17.23;;
3036;SDS011;1528;52.550;13.408;2022-08-19T07:16:21;20.20;;;18.80;;
3036;SDS011;1528;52.550;13.408;2022-08-19T07:19:11;18.27;;;16.87;;
3036;SDS011;1528;52.550;13.408;2022-08-19T07:22:00;18.03;;;16.80;;
3036;SDS011;1528;52.550;13.408;2022-08-19T07:24:49;24.17;;;22.27;;
3036;SDS011;1528;52.550;13.408;2022-08-19T07:27:38;20.47;;;18.87;;
3036;SDS011;1528;52.550;13.408;2022-08-19T07:30:25;18.80;;;17.43;;
3036;SDS011;1528;52.550;13.408;2022-08-19T07:33:13;19.00;;;17.80;;
3036;SDS011;1528;52.550;13.408;2022-08-19T07:36:02;21.67;;;20.00;;
3036;SDS011;1528;52.550;13.408;2022-08-19T07:38:51;20.60;;;18.90;;
3036;SDS011;1528;52.550;13.408;2022-08-19T07:41:40;20.17;;;18.80;;
3036;SDS011;1528;52.550;13.408;2022-08-19T07:44:29;22.03;;;20.43;;
3036;SDS011;1528;52.550;13.408;2022-08-19T07:47:18;19.83;;;18.63;;
3036;SDS011;1528;52.550;13.408;2022-08-19T07:50:06;22.17;;;20.50;;
3036;SDS011;1528;52.550;13.408;2022-08-19T07:52:57;21.03;;;19.57;;
3036;SDS011;1528;52.550;13.408;2022-08-19T07:55:45;21.67;;;20.17;;
3036;SDS011;1528;52.550;13.408;2022-08-19T07:58:35;24.83;;;23.03;;
3036;SDS011;1528;52.550;13.408;2022-08-19T08:01:25;23.93;;;22.30;;
3036;SDS011;1528;52.550;13.408;2022-08-19T08:04:14;22.13;;;20.60;;
3036;SDS011;1528;52.550;13.408;2022-08-19T08:07:19;22.37;;;20.87;;
3036;SDS011;1528;52.550;13.408;2022-08-19T08:10:26;22.60;;;21.03;;
3036;SDS011;1528;52.550;13.408;2022-08-19T08:13:14;22.37;;;20.87;;
3036;SDS011;1528;52.550;13.408;2022-08-19T08:16:02;23.40;;;21.80;;
3036;SDS011;1528;52.550;13.408;2022-08-19T08:18:50;23.07;;;21.57;;
3036;SDS011;1528;52.550;13.408;2022-08-19T08:21:37;24.63;;;23.00;;
3036;SDS011;1528;52.550;13.408;2022-08-19T08:24:23;24.93;;;23.17;;
3036;SDS011;1528;52.550;13.408;2022-08-19T08:27:16;23.00;;;21.50;;
3036;SDS011;1528;52.550;13.408;2022-08-19T08:30:03;23.83;;;22.13;;
3036;SDS011;1528;52.550;13.408;2022-08-19T08:32:53;23.53;;;21.83;;
3036;SDS011;1528;52.550;13.408;2022-08-19T08:35:41;22.87;;;21.27;;
3036;SDS011;1528;52.550;13.408;2022-08-19T08:38:29;23.53;;;21.93;;
3036;SDS011;1528;52.550;13.408;2022-08-19T08:41:23;25.17;;;23.57;;
3036;SDS011;1528;52.550;13.408;2022-08-19T08:44:22;23.70;;;22.00;;
3036;SDS011;1528;52.550;13.408;2022-08-19T08:47:26;24.97;;;23.17;;
3036;SDS011;1528;52.550;13.408;2022-08-19T08:50:20;25.33;;;23.63;;
3036;SDS011;1528;52.550;13.408;2022-08-19T08:53:10;22.93;;;21.53;;
3036;SDS011;1528;52.550;13.408;2022-08-19T08:56:00;25.53;;;23.73;;
3036;SDS011;1528;52.550;13.408;2022-08-19T08:58:53;24.23;;;22.43;;
3036;SDS011;1528;52.550;13.408;2022-08-19T09:01:45;24.23;;;22.43;;
3036;SDS011;1528;52.550;13.408;2022-08-19T09:04:31;22.90;;;21.50;;
3036;SDS011;1528;52.550;13.408;2022-08-19T09:07:24;24.43;;;22.73;;
3036;SDS011;1528;52.550;13.408;2022-08-19T09:10:19;23.93;;;22.10;;
3036;SDS011;1528;52.550;13.408;2022-08-19T09:13:11;24.37;;;22.63;;
3036;SDS011;1528;52.550;13.408;2022-08-19T09:16:06;23.10;;;21.30;;
3036;SDS011;1528;52.550;13.408;2022-08-19T09:18:57;22.70;;;20.80;;
3036;SDS011;1528;52.550;13.408;2022-08-19T09:21:46;24.33;;;22.60;;
3036;SDS011;1528;52.550;13.408;2022-08-19T09:24:33;24.00;;;22.47;;
3036;SDS011;1528;52.550;13.408;2022-08-19T09:27:20;27.80;;;25.90;;
3036;SDS011;1528;52.550;13.408;2022-08-19T09:30:08;22.43;;;20.93;;
3036;SDS011;1528;52.550;13.408;2022-08-19T09:32:57;23.00;;;21.50;;
3036;SDS011;1528;52.550;13.408;2022-08-19T09:35:46;21.77;;;20.27;;
3036;SDS011;1528;52.550;13.408;2022-08-19T09:38:32;21.77;;;20.17;;
3036;SDS011;1528;52.550;13.408;2022-08-19T09:41:20;22.63;;;21.13;;
3036;SDS011;1528;52.550;13.408;2022-08-19T09:44:07;21.07;;;19.77;;
3036;SDS011;1528;52.550;13.408;2022-08-19T09:46:52;22.27;;;20.63;;
3036;SDS011;1528;52.550;13.408;2022-08-19T09:49:39;21.63;;;20.03;;
3036;SDS011;1528;52.550;13.408;2022-08-19T09:52:27;20.80;;;19.43;;
3036;SDS011;1528;52.550;13.408;2022-08-19T09:55:13;18.87;;;17.50;;
3036;SDS011;1528;52.550;13.408;2022-08-19T09:58:00;21.33;;;19.70;;
3036;SDS011;1528;52.550;13.408;2022-08-19T10:00:45;21.67;;;20.17;;
3036;SDS011;1528;52.550;13.408;2022-08-19T10:03:32;20.80;;;19.40;;
3036;SDS011;1528;52.550;13.408;2022-08-19T10:06:23;19.47;;;18.17;;
3036;SDS011;1528;52.550;13.408;2022-08-19T10:09:14;19.70;;;18.40;;
3036;SDS011;1528;52.550;13.408;2022-08-19T10:12:03;21.27;;;19.73;;
3036;SDS011;1528;52.550;13.408;2022-08-19T10:14:51;21.83;;;20.27;;
3036;SDS011;1528;52.550;13.408;2022-08-19T10:17:41;20.97;;;19.67;;
3036;SDS011;1528;52.550;13.408;2022-08-19T10:20:29;21.00;;;19.37;;
3036;SDS011;1528;52.550;13.408;2022-08-19T10:23:19;18.43;;;17.13;;
3036;SDS011;1528;52.550;13.408;2022-08-19T10:26:10;19.27;;;17.73;;
3036;SDS011;1528;52.550;13.408;2022-08-19T10:29:00;19.37;;;18.00;;
3036;SDS011;1528;52.550;13.408;2022-08-19T10:31:49;20.60;;;19.23;;
3036;SDS011;1528;52.550;13.408;2022-08-19T10:34:38;19.27;;;17.87;;
3036;SDS011;1528;52.550;13.408;2022-08-19T10:37:26;18.07;;;16.80;;
3036;SDS011;1528;52.550;13.408;2022-08-19T10:40:17;20.33;;;18.97;;
3036;SDS011;1528;52.550;13.408;2022-08-19T10:43:08;20.67;;;19.20;;
3036;SDS011;1528;52.550;13.408;2022-08-19T10:45:56;19.23;;;17.83;;
3036;SDS011;1528;52.550;13.408;2022-08-19T10:48:44;18.03;;;16.90;;
3036;SDS011;1528;52.550;13.408;2022-08-19T10:51:33;19.00;;;17.70;;
3036;SDS011;1528;52.550;13.408;2022-08-19T10:54:37;19.30;;;18.10;;
3036;SDS011;1528;52.550;13.408;2022-08-19T10:57:42;20.63;;;19.23;;
3036;SDS011;1528;52.550;13.408;2022-08-19T11:00:32;18.63;;;17.43;;
3036;SDS011;1528;52.550;13.408;2022-08-19T11:03:20;18.97;;;17.57;;
3036;SDS011;1528;52.550;13.408;2022-08-19T11:06:08;18.40;;;17.20;;
3036;SDS011;1528;52.550;13.408;2022-08-19T11:08:55;20.03;;;18.80;;
3036;SDS011;1528;52.550;13.408;2022-08-19T11:11:42;21.20;;;19.70;;
3036;SDS011;1528;52.550;13.408;2022-08-19T11:14:31;20.07;;;18.77;;
3036;SDS011;1528;52.550;13.408;2022-08-19T11:17:22;19.80;;;18.40;;
3036;SDS011;1528;52.550;13.408;2022-08-19T11:20:10;19.97;;;18.30;;
3036;SDS011;1528;52.550;13.408;2022-08-19T11:22:59;19.17;;;17.97;;
3036;SDS011;1528;52.550;13.408;2022-08-19T11:25:46;18.20;;;17.03;;
3036;SDS011;1528;52.550;13.408;2022-08-19T11:28:35;19.10;;;17.70;;
3036;SDS011;1528;52.550;13.408;2022-08-19T11:31:22;19.50;;;18.00;;
3036;SDS011;1528;52.550;13.408;2022-08-19T11:34:12;19.17;;;17.87;;
3036;SDS011;1528;52.550;13.408;2022-08-19T11:37:02;20.30;;;19.00;;
3036;SDS011;1528;52.550;13.408;2022-08-19T11:39:50;22.10;;;20.60;;
3036;SDS011;1528;52.550;13.408;2022-08-19T11:42:37;20.37;;;19.07;;
3036;SDS011;1528;52.550;13.408;2022-08-19T11:45:43;20.60;;;19.07;;
3036;SDS011;1528;52.550;13.408;2022-08-19T11:48:33;19.33;;;18.03;;
3036;SDS011;1528;52.550;13.408;2022-08-19T11:51:24;18.83;;;17.53;;
3036;SDS011;1528;52.550;13.408;2022-08-19T11:54:13;18.00;;;16.80;;
3036;SDS011;1528;52.550;13.408;2022-08-19T11:57:03;17.57;;;16.27;;
3036;SDS011;1528;52.550;13.408;2022-08-19T11:59:51;16.53;;;15.30;;
3036;SDS011;1528;52.550;13.408;2022-08-19T12:02:39;18.17;;;16.83;;
3036;SDS011;1528;52.550;13.408;2022-08-19T12:05:26;16.80;;;15.60;;
3036;SDS011;1528;52.550;13.408;2022-08-19T12:08:15;15.50;;;14.30;;
3036;SDS011;1528;52.550;13.408;2022-08-19T12:11:04;16.13;;;15.03;;
3036;SDS011;1528;52.550;13.408;2022-08-19T12:13:53;14.73;;;13.63;;
3036;SDS011;1528;52.550;13.408;2022-08-19T12:16:40;14.83;;;13.90;;
3036;SDS011;1528;52.550;13.408;2022-08-19T12:19:26;15.90;;;14.83;;
3036;SDS011;1528;52.550;13.408;2022-08-19T12:22:14;16.67;;;15.63;;
3036;SDS011;1528;52.550;13.408;2022-08-19T12:25:04;14.33;;;13.33;;
3036;SDS011;1528;52.550;13.408;2022-08-19T12:27:52;14.27;;;13.37;;
3036;SDS011;1528;52.550;13.408;2022-08-19T12:30:39;15.67;;;14.37;;
3036;SDS011;1528;52.550;13.408;2022-08-19T12:33:28;12.80;;;12.00;;
3036;SDS011;1528;52.550;13.408;2022-08-19T12:36:17;14.07;;;12.90;;
3036;SDS011;1528;52.550;13.408;2022-08-19T12:39:02;12.97;;;12.17;;
3036;SDS011;1528;52.550;13.408;2022-08-19T12:41:50;13.80;;;12.70;;
3036;SDS011;1528;52.550;13.408;2022-08-19T12:44:36;14.33;;;13.33;;
3036;SDS011;1528;52.550;13.408;2022-08-19T12:47:23;12.23;;;11.53;;
3036;SDS011;1528;52.550;13.408;2022-08-19T12:50:10;13.53;;;12.67;;
3036;SDS011;1528;52.550;13.408;2022-08-19T12:52:55;13.70;;;12.60;;
3036;SDS011;1528;52.550;13.408;2022-08-19T12:55:41;12.90;;;12.00;;
3036;SDS011;1528;52.550;13.408;2022-08-19T12:58:29;15.20;;;14.10;;
3036;SDS011;1528;52.550;13.408;2022-08-19T13:01:15;14.83;;;13.93;;
3036;SDS011;1528;52.550;13.408;2022-08-19T13:04:02;14.30;;;13.30;;
3036;SDS011;1528;52.550;13.408;2022-08-19T13:06:48;14.23;;;13.13;;
3036;SDS011;1528;52.550;13.408;2022-08-19T13:09:34;14.00;;;13.10;;
3036;SDS011;1528;52.550;13.408;2022-08-19T13:12:19;15.47;;;14.40;;
3036;SDS011;1528;52.550;13.408;2022-08-19T13:15:09;14.80;;;13.90;;
3036;SDS011;1528;52.550;13.408;2022-08-19T13:17:55;13.77;;;12.97;;
3036;SDS011;1528;52.550;13.408;2022-08-19T13:20:41;14.73;;;13.83;;
3036;SDS011;1528;52.550;13.408;2022-08-19T13:23:27;15.10;;;14.20;;
3036;SDS011;1528;52.550;13.408;2022-08-19T13:26:12;14.43;;;13.53;;
3036;SDS011;1528;52.550;13.408;2022-08-19T13:28:58;14.83;;;13.67;;
3036;SDS011;1528;52.550;13.408;2022-08-19T13:32:02;15.13;;;14.10;;
3036;SDS011;1528;52.550;13.408;2022-08-19T13:35:06;14.43;;;13.60;;
3036;SDS011;1528;52.550;13.408;2022-08-19T13:37:52;13.50;;;12.70;;
3036;SDS011;1528;52.550;13.408;2022-08-19T13:40:38;15.33;;;14.37;;
3036;SDS011;1528;52.550;13.408;2022-08-19T13:43:26;15.87;;;14.77;;
3036;SDS011;1528;52.550;13.408;2022-08-19T13:46:12;14.33;;;13.37;;
3036;SDS011;1528;52.550;13.408;2022-08-19T13:48:59;15.23;;;14.23;;
3036;SDS011;1528;52.550;13.408;2022-08-19T13:51:44;14.40;;;13.50;;
3036;SDS011;1528;52.550;13.408;2022-08-19T13:54:30;14.67;;;13.70;;
3036;SDS011;1528;52.550;13.408;2022-08-19T13:57:16;15.33;;;14.23;;
3036;SDS011;1528;52.550;13.408;2022-08-19T14:00:06;15.33;;;14.37;;
3036;SDS011;1528;52.550;13.408;2022-08-19T14:02:55;15.80;;;14.80;;
3036;SDS011;1528;52.550;13.408;2022-08-19T14:05:45;14.70;;;13.70;;
3036;SDS011;1528;52.550;13.408;2022-08-19T14:08:32;16.03;;;15.03;;
3036;SDS011;1528;52.550;13.408;2022-08-19T14:11:23;14.97;;;14.03;;
3036;SDS011;1528;52.550;13.408;2022-08-19T14:14:11;15.00;;;14.10;;
3036;SDS011;1528;52.550;13.408;2022-08-19T14:16:59;16.33;;;15.30;;
3036;SDS011;1528;52.550;13.408;2022-08-19T14:19:46;16.20;;;15.20;;
3036;SDS011;1528;52.550;13.408;2022-08-19T14:22:33;14.97;;;14.07;;
3036;SDS011;1528;52.550;13.408;2022-08-19T14:25:20;16.17;;;14.97;;
3036;SDS011;1528;52.550;13.408;2022-08-19T14:28:07;15.43;;;14.43;;
3036;SDS011;1528;52.550;13.408;2022-08-19T14:30:53;15.10;;;14.10;;
3036;SDS011;1528;52.550;13.408;2022-08-19T14:33:40;15.83;;;14.67;;
3036;SDS011;1528;52.550;13.408;2022-08-19T14:36:26;13.53;;;12.73;;
3036;SDS011;1528;52.550;13.408;2022-08-19T14:39:16;13.40;;;12.57;;
3036;SDS011;1528;52.550;13.408;2022-08-19T14:42:06;13.50;;;12.70;;
3036;SDS011;1528;52.550;13.408;2022-08-19T14:44:57;14.07;;;13.17;;
3036;SDS011;1528;52.550;13.408;2022-08-19T14:47:45;14.00;;;13.10;;
3036;SDS011;1528;52.550;13.408;2022-08-19T14:50:34;14.10;;;13.10;;
3036;SDS011;1528;52.550;13.408;2022-08-19T14:53:23;13.87;;;13.07;;
3036;SDS011;1528;52.550;13.408;2022-08-19T14:56:14;14.90;;;14.00;;
3036;SDS011;1528;52.550;13.408;2022-08-19T14:59:03;14.10;;;13.10;;
3036;SDS011;1528;52.550;13.408;2022-08-19T15:01:52;14.40;;;13.60;;
3036;SDS011;1528;52.550;13.408;2022-08-19T15:04:41;12.97;;;12.17;;
3036;SDS011;1528;52.550;13.408;2022-08-19T15:07:29;13.30;;;12.43;;
3036;SDS011;1528;52.550;13.408;2022-08-19T15:10:17;14.80;;;13.80;;
3036;SDS011;1528;52.550;13.408;2022-08-19T15:13:10;13.73;;;12.60;;
3036;SDS011;1528;52.550;13.408;2022-08-19T15:16:00;14.00;;;13.20;;
3036;SDS011;1528;52.550;13.408;2022-08-19T15:18:49;13.80;;;12.90;;
3036;SDS011;1528;52.550;13.408;2022-08-19T15:21:41;14.60;;;13.70;;
3036;SDS011;1528;52.550;13.408;2022-08-19T15:24:28;13.97;;;13.03;;
3036;SDS011;1528;52.550;13.408;2022-08-19T15:27:17;15.30;;;14.20;;
3036;SDS011;1528;52.550;13.408;2022-08-19T15:30:08;15.10;;;14.07;;
3036;SDS011;1528;52.550;13.408;2022-08-19T15:32:58;14.70;;;13.80;;
3036;SDS011;1528;52.550;13.408;2022-08-19T15:35:47;14.50;;;13.40;;
3036;SDS011;1528;52.550;13.408;2022-08-19T15:38:37;14.43;;;13.33;;
3036;SDS011;1528;52.550;13.408;2022-08-19T15:41:27;14.20;;;13.30;;
3036;SDS011;1528;52.550;13.408;2022-08-19T15:44:17;15.50;;;14.50;;
3036;SDS011;1528;52.550;13.408;2022-08-19T15:47:07;16.50;;;15.43;;
3036;SDS011;1528;52.550;13.408;2022-08-19T15:49:56;14.77;;;13.87;;
3036;SDS011;1528;52.550;13.408;2022-08-19T15:52:45;15.40;;;14.50;;
3036;SDS011;1528;52.550;13.408;2022-08-19T15:55:36;14.50;;;13.40;;
3036;SDS011;1528;52.550;13.408;2022-08-19T15:58:29;15.20;;;14.23;;
3036;SDS011;1528;52.550;13.408;2022-08-19T16:01:33;14.97;;;13.87;;
3036;SDS011;1528;52.550;13.408;2022-08-19T16:04:39;14.57;;;13.47;;
3036;SDS011;1528;52.550;13.408;2022-08-19T16:07:44;14.20;;;13.30;;
3036;SDS011;1528;52.550;13.408;2022-08-19T16:10:32;14.30;;;13.30;;
3036;SDS011;1528;52.550;13.408;2022-08-19T16:13:18;14.83;;;13.83;;
3036;SDS011;1528;52.550;13.408;2022-08-19T16:16:04;15.27;;;14.10;;
3036;SDS011;1528;52.550;13.408;2022-08-19T16:18:53;15.67;;;14.63;;
3036;SDS011;1528;52.550;13.408;2022-08-19T16:21:44;15.60;;;14.50;;
3036;SDS011;1528;52.550;13.408;2022-08-19T16:24:37;15.90;;;14.80;;
3036;SDS011;1528;52.550;13.408;2022-08-19T16:27:25;15.60;;;14.27;;
3036;SDS011;1528;52.550;13.408;2022-08-19T16:30:13;15.47;;;14.47;;
3036;SDS011;1528;52.550;13.408;2022-08-19T16:33:02;14.37;;;13.37;;
3036;SDS011;1528;52.550;13.408;2022-08-19T16:35:49;16.53;;;15.43;;
3036;SDS011;1528;52.550;13.408;2022-08-19T16:38:37;15.10;;;14.00;;
3036;SDS011;1528;52.550;13.408;2022-08-19T16:41:26;15.00;;;14.00;;
3036;SDS011;1528;52.550;13.408;2022-08-19T16:44:14;16.37;;;15.27;;